createdAt,value
2023-04-21T00:15:01.947Z,6.27
2023-04-21T00:34:50.148Z,6.20
2023-04-21T00:55:09.698Z,5.82
2023-04-21T01:02:00.133Z,5.57
2023-04-21T01:15:43.996Z,5.25
2023-04-21T01:35:32.481Z,5.18
2023-04-21T01:49:31.688Z,5.26
2023-04-21T02:10:15.518Z,4.87
2023-04-21T02:29:54.809Z,4.47
2023-04-21T02:43:56.470Z,4.38
2023-04-21T03:10:38.446Z,4.42
2023-04-21T03:17:41.439Z,4.34
2023-04-21T03:37:33.471Z,3.98
2023-04-21T03:44:36.061Z,3.86
2023-04-21T03:58:36.137Z,3.90
2023-04-21T04:12:35.553Z,3.97
2023-04-21T04:32:55.337Z,4.19
2023-04-21T04:52:18.813Z,4.95
2023-04-21T04:58:49.955Z,5.22
2023-04-21T05:12:34.541Z,5.78
2023-04-21T05:32:44.224Z,6.86
2023-04-21T05:40:01.612Z,7.03
2023-04-21T05:59:53.827Z,7.82
2023-04-21T06:06:20.864Z,8.22
2023-04-21T06:19:17.908Z,8.74
2023-04-21T06:25:02.999Z,8.97
2023-04-21T06:30:27.348Z,9.19
2023-04-21T06:35:51.928Z,9.40
2023-04-21T06:41:16.055Z,9.58
2023-04-21T06:46:41.517Z,9.77
2023-04-21T06:52:05.518Z,9.93
2023-04-21T06:57:29.805Z,10.13
2023-04-21T07:02:53.957Z,10.36
2023-04-21T07:08:18.776Z,10.59
2023-04-21T07:13:42.856Z,10.89
2023-04-21T07:19:07.729Z,11.16
2023-04-21T07:24:32.445Z,11.38
2023-04-21T07:29:56.646Z,11.51
2023-04-21T07:35:20.882Z,11.65
2023-04-21T07:40:45.551Z,11.82
2023-04-21T07:46:09.440Z,11.99
2023-04-21T07:51:34.463Z,12.20
2023-04-21T07:56:58.175Z,12.40
2023-04-21T08:02:23.846Z,12.71
2023-04-21T08:07:49.087Z,12.86
2023-04-21T08:13:14.323Z,13.02
2023-04-21T08:18:38.211Z,13.21
2023-04-21T08:24:03.734Z,13.39
2023-04-21T08:29:28.869Z,13.61
2023-04-21T08:34:54.610Z,13.75
2023-04-21T08:40:19.774Z,13.95
2023-04-21T08:45:44.478Z,14.14
2023-04-21T08:51:13.038Z,14.34
2023-04-21T08:56:37.268Z,14.53
2023-04-21T09:02:19.333Z,14.69
2023-04-21T09:07:43.823Z,14.94
2023-04-21T09:13:09.551Z,15.19
2023-04-21T09:18:37.195Z,15.38
2023-04-21T09:24:09.000Z,15.55
2023-04-21T09:29:33.585Z,15.68
2023-04-21T09:35:01.529Z,15.79
2023-04-21T09:40:26.222Z,16.04
2023-04-21T09:45:51.886Z,16.19
2023-04-21T10:00:44.415Z,16.60
2023-04-21T10:06:09.054Z,16.81
2023-04-21T10:11:34.823Z,17.01
2023-04-21T10:17:06.184Z,17.18
2023-04-21T10:22:34.780Z,17.35
2023-04-21T10:27:59.129Z,17.49
2023-04-21T10:33:24.448Z,17.52
2023-04-21T10:38:57.722Z,17.59
2023-04-21T10:44:22.935Z,17.73
2023-04-21T10:49:50.782Z,17.85
2023-04-21T10:55:17.411Z,17.96
2023-04-21T11:00:41.860Z,18.10
2023-04-21T11:06:16.368Z,18.18
2023-04-21T11:11:40.990Z,18.33
2023-04-21T11:17:11.231Z,18.47
2023-04-21T11:22:39.227Z,18.50
2023-04-21T11:28:04.898Z,18.61
2023-04-21T11:33:31.107Z,18.67
2023-04-21T11:38:55.090Z,18.82
2023-04-21T11:44:39.965Z,18.96
2023-04-21T11:50:05.496Z,19.12
2023-04-21T11:55:29.878Z,19.16
2023-04-21T12:08:16.848Z,19.21
2023-04-21T12:13:41.481Z,19.32
2023-04-21T12:19:05.590Z,19.39
2023-04-21T12:24:30.074Z,19.50
2023-04-21T12:29:54.906Z,19.51
2023-04-21T12:35:19.532Z,19.64
2023-04-21T12:40:44.161Z,19.79
2023-04-21T12:46:09.059Z,19.94
2023-04-21T12:51:33.179Z,20.12
2023-04-21T12:56:58.425Z,20.16
2023-04-21T13:02:23.094Z,20.29
2023-04-21T13:07:48.611Z,20.44
2023-04-21T13:13:12.939Z,20.49
2023-04-21T13:18:39.314Z,20.60
2023-04-21T13:24:03.836Z,20.75
2023-04-21T13:30:02.832Z,21.04
2023-04-21T13:36:04.049Z,21.29
2023-04-21T13:42:04.031Z,21.45
2023-04-21T13:48:03.043Z,21.47
2023-04-21T13:54:02.241Z,21.13
2023-04-21T13:59:26.955Z,20.69
2023-04-21T14:04:54.342Z,20.01
2023-04-21T14:10:19.635Z,19.87
2023-04-21T14:15:44.644Z,19.91
2023-04-21T14:21:08.992Z,20.09
2023-04-21T14:26:34.360Z,20.50
2023-04-21T14:31:59.864Z,20.50
2023-04-21T14:37:25.297Z,20.39
2023-04-21T14:42:50.774Z,20.38
2023-04-21T14:48:18.314Z,20.61
2023-04-21T14:53:42.515Z,20.83
2023-04-21T14:59:06.564Z,20.98
2023-04-21T15:04:31.245Z,21.14
2023-04-21T15:09:56.078Z,21.34
2023-04-21T15:15:21.074Z,21.52
2023-04-21T15:20:46.090Z,21.99
2023-04-21T15:26:10.278Z,22.23
2023-04-21T15:31:34.667Z,22.36
2023-04-21T15:36:58.743Z,22.06
2023-04-21T15:42:23.907Z,21.61
2023-04-21T15:47:49.101Z,21.07
2023-04-21T15:53:13.438Z,20.74
2023-04-21T15:58:37.689Z,20.63
2023-04-21T16:04:02.102Z,20.67
2023-04-21T16:09:26.800Z,20.63
2023-04-21T16:14:57.783Z,20.53
2023-04-21T16:20:29.074Z,20.59
2023-04-21T16:25:55.387Z,20.66
2023-04-21T16:31:19.514Z,20.67
2023-04-21T16:36:44.167Z,20.52
2023-04-21T16:42:08.789Z,20.30
2023-04-21T16:47:42.112Z,20.09
2023-04-21T16:53:06.863Z,19.70
2023-04-21T16:58:31.817Z,19.57
2023-04-21T17:03:56.387Z,19.53
2023-04-21T17:09:21.244Z,19.57
2023-04-21T17:14:45.682Z,19.51
2023-04-21T17:20:12.592Z,19.36
2023-04-21T17:26:00.506Z,19.32
2023-04-21T17:31:29.787Z,19.13
2023-04-21T17:36:54.014Z,18.82
2023-04-21T17:42:18.169Z,18.60
2023-04-21T17:47:42.689Z,18.18
2023-04-21T17:53:07.007Z,17.74
2023-04-21T17:58:31.486Z,17.43
2023-04-21T18:03:59.282Z,17.13
2023-04-21T18:09:25.810Z,16.86
2023-04-21T18:14:50.579Z,16.62
2023-04-21T18:20:15.543Z,16.32
2023-04-21T18:25:42.488Z,15.97
2023-04-21T18:31:07.231Z,15.72
2023-04-21T18:36:33.720Z,15.49
2023-04-21T18:41:59.090Z,15.26
2023-04-21T18:47:24.613Z,15.05
2023-04-21T18:52:48.965Z,14.76
2023-04-21T18:58:13.682Z,14.37
2023-04-21T19:03:38.360Z,14.11
2023-04-21T19:09:02.784Z,13.91
2023-04-21T19:14:29.848Z,13.70
2023-04-21T19:19:57.484Z,13.43
2023-04-21T19:25:21.966Z,13.13
2023-04-21T19:30:46.721Z,12.88
2023-04-21T19:36:12.138Z,12.72
2023-04-21T19:41:37.421Z,12.59
2023-04-21T19:47:02.072Z,12.46
2023-04-21T19:52:29.650Z,12.38
2023-04-21T19:57:55.158Z,12.30
2023-04-21T20:03:20.122Z,12.28
2023-04-21T20:08:45.577Z,12.22
2023-04-21T20:14:10.086Z,12.14
2023-04-21T20:19:36.031Z,12.07
2023-04-21T20:25:00.984Z,11.97
2023-04-21T20:30:25.671Z,11.77
2023-04-21T20:35:50.844Z,11.59
2023-04-21T20:41:15.597Z,11.41
2023-04-21T20:46:42.129Z,11.29
2023-04-21T20:52:06.837Z,11.17
2023-04-21T20:57:32.093Z,11.12
2023-04-21T21:02:57.319Z,11.07
2023-04-21T21:08:22.560Z,10.96
2023-04-21T21:13:47.423Z,10.85
2023-04-21T21:19:13.244Z,10.74
2023-04-21T21:24:37.681Z,10.62
2023-04-21T21:30:03.126Z,10.50
2023-04-21T21:35:27.098Z,10.41
2023-04-21T21:40:52.110Z,10.32
2023-04-21T21:46:17.160Z,10.22
2023-04-21T21:51:43.051Z,10.11
2023-04-21T21:57:07.571Z,10.01
2023-04-21T22:02:33.056Z,9.88
2023-04-21T22:07:58.686Z,9.79
2023-04-21T22:13:22.982Z,9.71
2023-04-21T22:18:48.862Z,9.60
2023-04-21T22:24:14.990Z,9.49
2023-04-21T22:29:40.110Z,9.37
2023-04-21T22:35:05.448Z,9.23
2023-04-21T22:40:30.004Z,9.10
2023-04-21T22:45:54.795Z,8.99
2023-04-21T22:51:22.270Z,8.86
2023-04-21T22:56:47.962Z,8.79
2023-04-21T23:02:12.413Z,8.71
2023-04-21T23:07:37.654Z,8.60
2023-04-21T23:13:02.989Z,8.49
2023-04-21T23:18:27.845Z,8.37
2023-04-21T23:23:52.558Z,8.27
2023-04-21T23:29:18.482Z,8.20
2023-04-21T23:34:42.697Z,8.11
2023-04-21T23:40:11.392Z,8.05
2023-04-21T23:45:36.047Z,7.95
2023-04-21T23:51:00.236Z,7.87
2023-04-21T23:56:25.270Z,7.81
